| time (UTC) | temp F | wind direction | speed MPH | gust MPH | rain 1hr in | rain 24hr in | rain mn in | humidity % | barometer mb |
| 20260509203024 | 62 | 72 | 6.0 | 6.0 | 0.00 | 0.00 | 0.00 | 90 | 1013.6 |
| 20260509200024 | 62 | 100 | 6.0 | 10.0 | 0.00 | 0.00 | 0.00 | 88 | 1014.1 |
| 20260509193023 | 63 | 110 | 4.0 | 9.0 | 0.00 | 0.00 | 0.00 | 86 | 1014.3 |
| 20260509190023 | 63 | 126 | 3.0 | 8.0 | 0.00 | 0.00 | 0.00 | 84 | 1014.7 |
| 20260509183023 | 64 | 132 | 4.0 | 7.0 | 0.00 | 0.00 | 0.00 | 82 | 1014.4 |
| 20260509180022 | 66 | 76 | 1.0 | 4.0 | 0.00 | 0.00 | 0.00 | 77 | 1014.5 |
| 20260509173021 | 66 | 54 | 4.0 | 4.0 | 0.00 | 0.00 | 0.00 | 77 | 1014.8 |
| 20260509170022 | 66 | 89 | 7.0 | 9.0 | 0.00 | 0.00 | 0.00 | 76 | 1014.9 |
| 20260509163021 | 67 | 88 | 11.0 | 11.0 | 0.00 | 0.00 | 0.00 | 74 | 1015.1 |
| 20260509160020 | 66 | 135 | 2.0 | 4.0 | 0.00 | 0.00 | 0.00 | 73 | 1015.2 |
| 20260509153020 | 67 | 74 | 2.0 | 6.0 | 0.00 | 0.00 | 0.00 | 73 | 1015.6 |
| 20260509143018 | 71 | 133 | 3.0 | 7.0 | 0.00 | 0.00 | 0.00 | 66 | 1015.4 |
| 20260509140048 | 71 | 71 | 4.0 | 7.0 | 0.00 | 0.00 | 0.00 | 66 | 1015.6 |
| 20260509133047 | 75 | 144 | 5.0 | 7.0 | 0.00 | 0.00 | 0.00 | 60 | 1016.6 |
| 20260509130047 | 76 | 134 | 5.0 | 9.0 | 0.00 | 0.00 | 0.00 | 56 | 1016.9 |
| 20260509123046 | 75 | 128 | 3.0 | 7.0 | 0.00 | 0.00 | 0.00 | 60 | 1016.7 |
| 20260509120046 | 78 | 134 | 8.0 | 12.0 | 0.00 | 0.00 | 0.00 | 55 | 1017.2 |
| 20260509113045 | 77 | 49 | 3.0 | 7.0 | 0.00 | 0.00 | 0.00 | 55 | 1017.1 |
| 20260509103044 | 74 | 165 | 4.0 | 5.0 | 0.00 | 0.00 | 0.00 | 61 | 1017.4 |
| 20260509100044 | 73 | 133 | 3.0 | 9.0 | 0.00 | 0.00 | 0.00 | 63 | 1017.6 |
| 20260509093043 | 75 | 184 | 4.0 | 7.0 | 0.00 | 0.00 | 0.00 | 53 | 1017.8 |
| 20260509090043 | 72 | 115 | 6.0 | 6.0 | 0.00 | 0.00 | 0.00 | 56 | 1017.0 |
| 20260509083042 | 69 | 5 | 3.0 | 8.0 | 0.00 | 0.00 | 0.00 | 58 | 1016.4 |
| 20260509080041 | 68 | 5 | 5.0 | 9.0 | 0.00 | 0.00 | 0.00 | 60 | 1016.7 |
| 20260509070041 | 63 | 21 | 8.0 | 12.0 | 0.00 | 0.00 | 0.00 | 71 | 1016.1 |
| 20260509063039 | 61 | 331 | 14.0 | 17.0 | 0.00 | 0.00 | 0.00 | 75 | 1015.8 |
| 20260509060039 | 61 | 42 | 5.0 | 11.0 | 0.00 | 0.00 | 0.00 | 80 | 1015.8 |
| 20260509053038 | 59 | 5 | 5.0 | 8.0 | 0.00 | 0.00 | 0.00 | 83 | 1016.1 |
| 20260509050038 | 58 | 12 | 4.0 | 9.0 | 0.00 | 0.00 | 0.00 | 88 | 1016.0 |
| 20260509043037 | 57 | 32 | 4.0 | 10.0 | 0.00 | 0.00 | 0.00 | 88 | 1016.3 |
| 20260509040037 | 57 | 344 | 6.0 | 11.0 | 0.00 | 0.00 | 0.00 | 84 | 1016.1 |
| 20260509033036 | 58 | 14 | 8.0 | 10.0 | 0.00 | 0.00 | 0.00 | 81 | 1016.0 |
| 20260509030036 | 58 | 329 | 10.0 | 10.0 | 0.00 | 0.00 | 0.00 | 82 | 1016.2 |
| 20260509023035 | 58 | 313 | 4.0 | 8.0 | 0.00 | 0.00 | 0.00 | 82 | 1016.4 |
| 20260509013034 | 59 | 355 | 4.0 | 9.0 | 0.00 | 0.00 | 0.00 | 75 | 1016.5 |
| 20260509003033 | 59 | 344 | 1.0 | 3.0 | 0.00 | 0.00 | 0.00 | 76 | 1016.4 |
| 20260509000034 | 60 | 5 | 1.0 | 4.0 | 0.00 | 0.00 | 0.00 | 77 | 1016.4 |
| 20260508233032 | 59 | 355 | 2.0 | 5.0 | 0.00 | 0.00 | 0.00 | 82 | 1016.4 |
| 20260508230031 | 59 | 19 | 3.0 | 4.0 | 0.00 | 0.00 | 0.00 | 86 | 1016.5 |
| 20260508223031 | 59 | 28 | 3.0 | 6.0 | 0.00 | 0.00 | 0.00 | 86 | 1016.2 |
| 20260508210031 | 60 | 317 | 3.0 | 6.0 | 0.00 | 0.00 | 0.00 | 86 | 1015.9 |